sensor_id;sensor_type;location;lat;lon;timestamp;P1;durP1;ratioP1;P2;durP2;ratioP2
75441;SDS011;64019;48.312;14.226;2023-03-12T00:01:18;7.70;;;3.60;;
75441;SDS011;64019;48.312;14.226;2023-03-12T00:03:48;5.33;;;3.50;;
75441;SDS011;64019;48.312;14.226;2023-03-12T00:06:15;5.43;;;3.10;;
75441;SDS011;64019;48.312;14.226;2023-03-12T00:08:42;6.33;;;3.00;;
75441;SDS011;64019;48.312;14.226;2023-03-12T00:11:09;4.37;;;2.83;;
75441;SDS011;64019;48.312;14.226;2023-03-12T00:13:36;4.93;;;2.80;;
75441;SDS011;64019;48.312;14.226;2023-03-12T00:16:10;5.77;;;3.20;;
75441;SDS011;64019;48.312;14.226;2023-03-12T00:18:37;6.37;;;3.43;;
75441;SDS011;64019;48.312;14.226;2023-03-12T00:21:03;7.77;;;3.93;;
75441;SDS011;64019;48.312;14.226;2023-03-12T00:23:30;9.70;;;3.17;;
75441;SDS011;64019;48.312;14.226;2023-03-12T00:25:59;5.70;;;3.50;;
75441;SDS011;64019;48.312;14.226;2023-03-12T00:28:30;7.03;;;4.03;;
75441;SDS011;64019;48.312;14.226;2023-03-12T00:30:56;7.23;;;3.00;;
75441;SDS011;64019;48.312;14.226;2023-03-12T00:33:25;4.40;;;2.93;;
75441;SDS011;64019;48.312;14.226;2023-03-12T00:35:53;8.20;;;3.80;;
75441;SDS011;64019;48.312;14.226;2023-03-12T00:38:20;7.00;;;3.70;;
75441;SDS011;64019;48.312;14.226;2023-03-12T00:40:46;5.03;;;3.00;;
75441;SDS011;64019;48.312;14.226;2023-03-12T00:43:12;7.10;;;3.53;;
75441;SDS011;64019;48.312;14.226;2023-03-12T00:45:38;7.23;;;3.37;;
75441;SDS011;64019;48.312;14.226;2023-03-12T00:48:04;9.03;;;3.90;;
75441;SDS011;64019;48.312;14.226;2023-03-12T00:50:30;5.27;;;3.13;;
75441;SDS011;64019;48.312;14.226;2023-03-12T00:52:55;10.13;;;3.70;;
75441;SDS011;64019;48.312;14.226;2023-03-12T00:55:21;5.67;;;3.20;;
75441;SDS011;64019;48.312;14.226;2023-03-12T00:57:47;6.77;;;3.43;;
75441;SDS011;64019;48.312;14.226;2023-03-12T01:00:12;7.90;;;3.73;;
75441;SDS011;64019;48.312;14.226;2023-03-12T01:02:39;5.83;;;2.90;;
75441;SDS011;64019;48.312;14.226;2023-03-12T01:05:05;4.70;;;2.93;;
75441;SDS011;64019;48.312;14.226;2023-03-12T01:07:32;7.40;;;3.17;;
75441;SDS011;64019;48.312;14.226;2023-03-12T01:09:59;5.80;;;3.03;;
75441;SDS011;64019;48.312;14.226;2023-03-12T01:12:24;6.90;;;3.30;;
75441;SDS011;64019;48.312;14.226;2023-03-12T01:14:50;7.97;;;3.33;;
75441;SDS011;64019;48.312;14.226;2023-03-12T01:17:16;5.17;;;2.93;;
75441;SDS011;64019;48.312;14.226;2023-03-12T01:19:42;6.87;;;3.00;;
75441;SDS011;64019;48.312;14.226;2023-03-12T01:22:08;3.73;;;2.63;;
75441;SDS011;64019;48.312;14.226;2023-03-12T01:24:33;5.73;;;3.43;;
75441;SDS011;64019;48.312;14.226;2023-03-12T01:26:59;4.13;;;3.03;;
75441;SDS011;64019;48.312;14.226;2023-03-12T01:29:24;4.67;;;2.77;;
75441;SDS011;64019;48.312;14.226;2023-03-12T01:31:50;4.93;;;3.07;;
75441;SDS011;64019;48.312;14.226;2023-03-12T01:34:16;5.87;;;3.47;;
75441;SDS011;64019;48.312;14.226;2023-03-12T01:36:42;5.13;;;2.80;;
75441;SDS011;64019;48.312;14.226;2023-03-12T01:39:09;5.83;;;3.30;;
75441;SDS011;64019;48.312;14.226;2023-03-12T01:41:34;4.27;;;3.00;;
75441;SDS011;64019;48.312;14.226;2023-03-12T01:44:01;5.07;;;3.20;;
75441;SDS011;64019;48.312;14.226;2023-03-12T01:46:33;5.83;;;3.50;;
75441;SDS011;64019;48.312;14.226;2023-03-12T01:49:02;6.47;;;3.67;;
75441;SDS011;64019;48.312;14.226;2023-03-12T01:51:42;4.63;;;2.67;;
75441;SDS011;64019;48.312;14.226;2023-03-12T01:54:17;7.27;;;3.70;;
75441;SDS011;64019;48.312;14.226;2023-03-12T01:56:46;5.13;;;3.50;;
75441;SDS011;64019;48.312;14.226;2023-03-12T01:59:18;5.60;;;3.50;;
75441;SDS011;64019;48.312;14.226;2023-03-12T02:01:47;8.03;;;3.27;;
75441;SDS011;64019;48.312;14.226;2023-03-12T02:04:15;8.10;;;3.07;;
75441;SDS011;64019;48.312;14.226;2023-03-12T02:07:05;4.83;;;3.17;;
75441;SDS011;64019;48.312;14.226;2023-03-12T02:09:34;5.13;;;3.23;;
75441;SDS011;64019;48.312;14.226;2023-03-12T02:12:03;7.97;;;3.00;;
75441;SDS011;64019;48.312;14.226;2023-03-12T02:14:29;4.97;;;3.07;;
75441;SDS011;64019;48.312;14.226;2023-03-12T02:16:56;6.60;;;3.17;;
75441;SDS011;64019;48.312;14.226;2023-03-12T02:19:42;6.13;;;3.27;;
75441;SDS011;64019;48.312;14.226;2023-03-12T02:22:19;4.83;;;3.00;;
75441;SDS011;64019;48.312;14.226;2023-03-12T02:24:51;6.40;;;3.57;;
75441;SDS011;64019;48.312;14.226;2023-03-12T02:27:22;5.47;;;3.20;;
75441;SDS011;64019;48.312;14.226;2023-03-12T02:29:48;5.50;;;3.10;;
75441;SDS011;64019;48.312;14.226;2023-03-12T02:32:25;5.17;;;3.70;;
75441;SDS011;64019;48.312;14.226;2023-03-12T02:34:52;6.87;;;3.03;;
75441;SDS011;64019;48.312;14.226;2023-03-12T02:37:19;7.57;;;3.00;;
75441;SDS011;64019;48.312;14.226;2023-03-12T02:39:48;9.00;;;3.50;;
75441;SDS011;64019;48.312;14.226;2023-03-12T02:42:17;4.60;;;2.97;;
75441;SDS011;64019;48.312;14.226;2023-03-12T02:44:44;7.10;;;3.10;;
75441;SDS011;64019;48.312;14.226;2023-03-12T02:47:10;4.17;;;2.43;;
75441;SDS011;64019;48.312;14.226;2023-03-12T02:49:35;4.40;;;2.60;;
75441;SDS011;64019;48.312;14.226;2023-03-12T02:52:01;8.33;;;3.30;;
75441;SDS011;64019;48.312;14.226;2023-03-12T02:54:28;6.90;;;3.07;;
75441;SDS011;64019;48.312;14.226;2023-03-12T02:56:54;5.40;;;2.53;;
75441;SDS011;64019;48.312;14.226;2023-03-12T02:59:21;5.00;;;2.63;;
75441;SDS011;64019;48.312;14.226;2023-03-12T03:01:53;4.10;;;2.33;;
75441;SDS011;64019;48.312;14.226;2023-03-12T03:04:21;4.30;;;2.33;;
75441;SDS011;64019;48.312;14.226;2023-03-12T03:06:47;5.67;;;2.80;;
75441;SDS011;64019;48.312;14.226;2023-03-12T03:09:13;7.57;;;2.77;;
75441;SDS011;64019;48.312;14.226;2023-03-12T03:11:39;3.03;;;2.40;;
75441;SDS011;64019;48.312;14.226;2023-03-12T03:14:05;3.27;;;2.30;;
75441;SDS011;64019;48.312;14.226;2023-03-12T03:16:31;3.73;;;2.20;;
75441;SDS011;64019;48.312;14.226;2023-03-12T03:18:58;5.27;;;2.60;;
75441;SDS011;64019;48.312;14.226;2023-03-12T03:21:23;7.30;;;2.97;;
75441;SDS011;64019;48.312;14.226;2023-03-12T03:23:49;4.07;;;2.27;;
75441;SDS011;64019;48.312;14.226;2023-03-12T03:26:17;3.93;;;2.27;;
75441;SDS011;64019;48.312;14.226;2023-03-12T03:28:44;3.77;;;2.37;;
75441;SDS011;64019;48.312;14.226;2023-03-12T03:31:10;4.77;;;2.37;;
75441;SDS011;64019;48.312;14.226;2023-03-12T03:33:36;5.00;;;2.30;;
75441;SDS011;64019;48.312;14.226;2023-03-12T03:36:03;4.17;;;2.63;;
75441;SDS011;64019;48.312;14.226;2023-03-12T03:38:30;3.80;;;2.63;;
75441;SDS011;64019;48.312;14.226;2023-03-12T03:40:58;3.07;;;2.03;;
75441;SDS011;64019;48.312;14.226;2023-03-12T03:43:24;2.83;;;2.07;;
75441;SDS011;64019;48.312;14.226;2023-03-12T03:46:00;6.43;;;2.37;;
75441;SDS011;64019;48.312;14.226;2023-03-12T03:48:27;9.57;;;2.70;;
75441;SDS011;64019;48.312;14.226;2023-03-12T03:50:53;5.80;;;2.40;;
75441;SDS011;64019;48.312;14.226;2023-03-12T03:53:18;2.90;;;2.20;;
75441;SDS011;64019;48.312;14.226;2023-03-12T03:55:44;3.00;;;1.93;;
75441;SDS011;64019;48.312;14.226;2023-03-12T03:58:10;5.60;;;2.57;;
75441;SDS011;64019;48.312;14.226;2023-03-12T04:00:36;7.17;;;2.70;;
75441;SDS011;64019;48.312;14.226;2023-03-12T04:03:02;6.13;;;2.23;;
75441;SDS011;64019;48.312;14.226;2023-03-12T04:05:28;3.60;;;2.33;;
75441;SDS011;64019;48.312;14.226;2023-03-12T04:07:54;5.57;;;2.50;;
75441;SDS011;64019;48.312;14.226;2023-03-12T04:10:21;3.67;;;2.50;;
75441;SDS011;64019;48.312;14.226;2023-03-12T04:12:48;3.47;;;2.27;;
75441;SDS011;64019;48.312;14.226;2023-03-12T04:15:14;6.47;;;2.53;;
75441;SDS011;64019;48.312;14.226;2023-03-12T04:17:40;7.03;;;2.70;;
75441;SDS011;64019;48.312;14.226;2023-03-12T04:20:06;3.70;;;2.63;;
75441;SDS011;64019;48.312;14.226;2023-03-12T04:22:33;4.60;;;2.53;;
75441;SDS011;64019;48.312;14.226;2023-03-12T04:24:59;4.23;;;2.70;;
75441;SDS011;64019;48.312;14.226;2023-03-12T04:27:25;5.77;;;2.83;;
75441;SDS011;64019;48.312;14.226;2023-03-12T04:29:51;5.17;;;2.60;;
75441;SDS011;64019;48.312;14.226;2023-03-12T04:32:16;3.77;;;2.20;;
75441;SDS011;64019;48.312;14.226;2023-03-12T04:34:42;4.60;;;2.27;;
75441;SDS011;64019;48.312;14.226;2023-03-12T04:37:08;3.97;;;2.70;;
75441;SDS011;64019;48.312;14.226;2023-03-12T04:39:37;5.07;;;2.40;;
75441;SDS011;64019;48.312;14.226;2023-03-12T04:42:04;4.10;;;2.77;;
75441;SDS011;64019;48.312;14.226;2023-03-12T04:44:30;4.17;;;2.40;;
75441;SDS011;64019;48.312;14.226;2023-03-12T04:46:55;4.53;;;2.60;;
75441;SDS011;64019;48.312;14.226;2023-03-12T04:49:21;8.10;;;2.47;;
75441;SDS011;64019;48.312;14.226;2023-03-12T04:51:47;6.37;;;2.60;;
75441;SDS011;64019;48.312;14.226;2023-03-12T04:54:12;3.63;;;2.60;;
75441;SDS011;64019;48.312;14.226;2023-03-12T04:56:38;3.37;;;2.30;;
75441;SDS011;64019;48.312;14.226;2023-03-12T04:59:04;5.57;;;2.63;;
75441;SDS011;64019;48.312;14.226;2023-03-12T05:01:31;3.37;;;1.87;;
75441;SDS011;64019;48.312;14.226;2023-03-12T05:03:59;5.17;;;2.50;;
75441;SDS011;64019;48.312;14.226;2023-03-12T05:06:25;7.73;;;3.37;;
75441;SDS011;64019;48.312;14.226;2023-03-12T05:08:51;2.67;;;2.13;;
75441;SDS011;64019;48.312;14.226;2023-03-12T05:11:17;4.97;;;3.23;;
75441;SDS011;64019;48.312;14.226;2023-03-12T05:13:43;8.77;;;5.47;;
75441;SDS011;64019;48.312;14.226;2023-03-12T05:16:09;5.30;;;3.67;;
75441;SDS011;64019;48.312;14.226;2023-03-12T05:18:35;3.77;;;2.47;;
75441;SDS011;64019;48.312;14.226;2023-03-12T05:21:02;5.20;;;3.40;;
75441;SDS011;64019;48.312;14.226;2023-03-12T05:23:33;15.20;;;7.87;;
75441;SDS011;64019;48.312;14.226;2023-03-12T05:25:59;9.13;;;5.90;;
75441;SDS011;64019;48.312;14.226;2023-03-12T05:28:26;7.27;;;3.90;;
75441;SDS011;64019;48.312;14.226;2023-03-12T05:30:55;7.80;;;4.30;;
75441;SDS011;64019;48.312;14.226;2023-03-12T05:33:22;9.47;;;4.47;;
75441;SDS011;64019;48.312;14.226;2023-03-12T05:35:49;10.63;;;6.43;;
75441;SDS011;64019;48.312;14.226;2023-03-12T05:38:14;10.80;;;6.67;;
75441;SDS011;64019;48.312;14.226;2023-03-12T05:40:40;11.30;;;6.70;;
75441;SDS011;64019;48.312;14.226;2023-03-12T05:43:06;7.77;;;4.53;;
75441;SDS011;64019;48.312;14.226;2023-03-12T05:45:32;7.23;;;4.17;;
75441;SDS011;64019;48.312;14.226;2023-03-12T05:47:58;7.90;;;4.30;;
75441;SDS011;64019;48.312;14.226;2023-03-12T05:50:24;6.67;;;3.60;;
75441;SDS011;64019;48.312;14.226;2023-03-12T05:52:50;5.57;;;3.27;;
75441;SDS011;64019;48.312;14.226;2023-03-12T05:55:16;5.20;;;3.13;;
75441;SDS011;64019;48.312;14.226;2023-03-12T05:57:42;6.33;;;3.07;;
75441;SDS011;64019;48.312;14.226;2023-03-12T06:00:08;6.93;;;3.20;;
75441;SDS011;64019;48.312;14.226;2023-03-12T06:02:37;9.20;;;3.30;;
75441;SDS011;64019;48.312;14.226;2023-03-12T06:05:02;7.97;;;3.00;;
75441;SDS011;64019;48.312;14.226;2023-03-12T06:07:28;5.70;;;2.93;;
75441;SDS011;64019;48.312;14.226;2023-03-12T06:09:54;8.60;;;3.37;;
75441;SDS011;64019;48.312;14.226;2023-03-12T06:12:20;6.00;;;3.23;;
75441;SDS011;64019;48.312;14.226;2023-03-12T06:14:45;3.73;;;3.03;;
75441;SDS011;64019;48.312;14.226;2023-03-12T06:17:11;5.33;;;3.20;;
75441;SDS011;64019;48.312;14.226;2023-03-12T06:19:36;4.70;;;2.80;;
75441;SDS011;64019;48.312;14.226;2023-03-12T06:22:02;4.83;;;3.07;;
75441;SDS011;64019;48.312;14.226;2023-03-12T06:24:28;6.17;;;3.07;;
75441;SDS011;64019;48.312;14.226;2023-03-12T06:26:53;6.30;;;3.40;;
75441;SDS011;64019;48.312;14.226;2023-03-12T06:29:19;10.33;;;3.40;;
75441;SDS011;64019;48.312;14.226;2023-03-12T06:31:45;5.77;;;3.57;;
75441;SDS011;64019;48.312;14.226;2023-03-12T06:34:12;6.00;;;3.40;;
75441;SDS011;64019;48.312;14.226;2023-03-12T06:36:38;7.10;;;3.73;;
75441;SDS011;64019;48.312;14.226;2023-03-12T06:39:03;4.50;;;3.43;;
75441;SDS011;64019;48.312;14.226;2023-03-12T06:41:30;4.20;;;3.10;;
75441;SDS011;64019;48.312;14.226;2023-03-12T06:43:56;6.40;;;3.83;;
75441;SDS011;64019;48.312;14.226;2023-03-12T06:46:23;8.43;;;4.33;;
75441;SDS011;64019;48.312;14.226;2023-03-12T06:48:49;6.63;;;4.00;;
75441;SDS011;64019;48.312;14.226;2023-03-12T06:51:15;6.37;;;3.63;;
75441;SDS011;64019;48.312;14.226;2023-03-12T06:53:42;7.17;;;3.23;;
75441;SDS011;64019;48.312;14.226;2023-03-12T06:56:09;6.47;;;3.50;;
75441;SDS011;64019;48.312;14.226;2023-03-12T06:58:35;5.93;;;3.43;;
75441;SDS011;64019;48.312;14.226;2023-03-12T07:01:01;5.30;;;3.57;;
75441;SDS011;64019;48.312;14.226;2023-03-12T07:03:26;5.63;;;3.67;;
75441;SDS011;64019;48.312;14.226;2023-03-12T07:05:54;6.73;;;4.27;;
75441;SDS011;64019;48.312;14.226;2023-03-12T07:08:21;5.77;;;3.80;;
75441;SDS011;64019;48.312;14.226;2023-03-12T07:10:47;8.00;;;4.20;;
75441;SDS011;64019;48.312;14.226;2023-03-12T07:13:13;7.60;;;3.60;;
75441;SDS011;64019;48.312;14.226;2023-03-12T07:15:38;6.70;;;3.60;;
75441;SDS011;64019;48.312;14.226;2023-03-12T07:18:08;6.90;;;4.00;;
75441;SDS011;64019;48.312;14.226;2023-03-12T07:20:36;5.37;;;3.37;;
75441;SDS011;64019;48.312;14.226;2023-03-12T07:23:06;5.00;;;3.40;;
75441;SDS011;64019;48.312;14.226;2023-03-12T07:25:39;9.43;;;4.20;;
75441;SDS011;64019;48.312;14.226;2023-03-12T07:28:06;7.63;;;4.00;;
75441;SDS011;64019;48.312;14.226;2023-03-12T07:30:33;6.67;;;3.80;;
75441;SDS011;64019;48.312;14.226;2023-03-12T07:33:02;5.93;;;3.60;;
75441;SDS011;64019;48.312;14.226;2023-03-12T07:35:29;5.50;;;3.83;;
75441;SDS011;64019;48.312;14.226;2023-03-12T07:37:55;6.03;;;3.63;;
75441;SDS011;64019;48.312;14.226;2023-03-12T07:40:20;5.20;;;3.30;;
75441;SDS011;64019;48.312;14.226;2023-03-12T07:42:47;6.27;;;3.60;;
75441;SDS011;64019;48.312;14.226;2023-03-12T07:45:14;7.23;;;4.13;;
75441;SDS011;64019;48.312;14.226;2023-03-12T07:47:42;6.70;;;4.03;;
75441;SDS011;64019;48.312;14.226;2023-03-12T07:50:08;6.23;;;3.83;;
75441;SDS011;64019;48.312;14.226;2023-03-12T07:52:34;9.40;;;4.23;;
75441;SDS011;64019;48.312;14.226;2023-03-12T07:55:00;8.77;;;4.33;;
75441;SDS011;64019;48.312;14.226;2023-03-12T07:57:25;5.73;;;3.90;;
75441;SDS011;64019;48.312;14.226;2023-03-12T07:59:51;6.13;;;3.37;;
75441;SDS011;64019;48.312;14.226;2023-03-12T08:02:17;4.87;;;3.53;;
75441;SDS011;64019;48.312;14.226;2023-03-12T08:04:44;8.90;;;4.03;;
75441;SDS011;64019;48.312;14.226;2023-03-12T08:07:10;6.03;;;4.23;;
75441;SDS011;64019;48.312;14.226;2023-03-12T08:09:36;9.87;;;3.40;;
75441;SDS011;64019;48.312;14.226;2023-03-12T08:12:03;8.83;;;4.40;;
75441;SDS011;64019;48.312;14.226;2023-03-12T08:14:29;10.33;;;5.13;;
75441;SDS011;64019;48.312;14.226;2023-03-12T08:16:55;9.10;;;4.50;;
75441;SDS011;64019;48.312;14.226;2023-03-12T08:19:22;8.97;;;4.63;;
75441;SDS011;64019;48.312;14.226;2023-03-12T08:21:48;10.47;;;4.57;;
75441;SDS011;64019;48.312;14.226;2023-03-12T08:24:15;7.93;;;5.13;;
75441;SDS011;64019;48.312;14.226;2023-03-12T08:26:41;10.30;;;5.40;;
75441;SDS011;64019;48.312;14.226;2023-03-12T08:29:07;7.53;;;4.03;;
75441;SDS011;64019;48.312;14.226;2023-03-12T08:31:33;7.07;;;4.27;;
75441;SDS011;64019;48.312;14.226;2023-03-12T08:33:59;7.00;;;4.30;;
75441;SDS011;64019;48.312;14.226;2023-03-12T08:36:25;7.03;;;4.37;;
75441;SDS011;64019;48.312;14.226;2023-03-12T08:38:50;11.63;;;3.97;;
75441;SDS011;64019;48.312;14.226;2023-03-12T08:41:16;6.30;;;3.83;;
75441;SDS011;64019;48.312;14.226;2023-03-12T08:43:41;7.97;;;3.60;;
75441;SDS011;64019;48.312;14.226;2023-03-12T08:46:07;5.63;;;3.90;;
75441;SDS011;64019;48.312;14.226;2023-03-12T08:48:33;9.43;;;3.93;;
75441;SDS011;64019;48.312;14.226;2023-03-12T08:50:59;8.43;;;4.53;;
75441;SDS011;64019;48.312;14.226;2023-03-12T08:53:28;13.50;;;5.20;;
75441;SDS011;64019;48.312;14.226;2023-03-12T08:55:55;10.87;;;5.77;;
75441;SDS011;64019;48.312;14.226;2023-03-12T08:58:22;9.97;;;5.73;;
75441;SDS011;64019;48.312;14.226;2023-03-12T09:00:49;10.10;;;4.73;;
75441;SDS011;64019;48.312;14.226;2023-03-12T09:03:15;11.40;;;5.50;;
75441;SDS011;64019;48.312;14.226;2023-03-12T09:05:41;10.13;;;4.93;;
75441;SDS011;64019;48.312;14.226;2023-03-12T09:08:07;11.47;;;5.70;;
75441;SDS011;64019;48.312;14.226;2023-03-12T09:10:34;12.57;;;6.47;;
75441;SDS011;64019;48.312;14.226;2023-03-12T09:13:03;11.73;;;5.93;;
75441;SDS011;64019;48.312;14.226;2023-03-12T09:15:30;10.60;;;5.60;;
75441;SDS011;64019;48.312;14.226;2023-03-12T09:17:56;9.30;;;4.10;;
75441;SDS011;64019;48.312;14.226;2023-03-12T09:20:22;14.27;;;5.63;;
75441;SDS011;64019;48.312;14.226;2023-03-12T09:22:49;8.60;;;5.17;;
75441;SDS011;64019;48.312;14.226;2023-03-12T09:25:15;10.60;;;5.30;;
75441;SDS011;64019;48.312;14.226;2023-03-12T09:27:43;9.97;;;4.77;;
75441;SDS011;64019;48.312;14.226;2023-03-12T09:30:11;8.77;;;5.03;;
75441;SDS011;64019;48.312;14.226;2023-03-12T09:32:39;11.83;;;5.07;;
75441;SDS011;64019;48.312;14.226;2023-03-12T09:35:05;11.13;;;5.37;;
75441;SDS011;64019;48.312;14.226;2023-03-12T09:37:31;8.73;;;5.20;;
75441;SDS011;64019;48.312;14.226;2023-03-12T09:39:58;13.13;;;6.00;;
75441;SDS011;64019;48.312;14.226;2023-03-12T09:42:24;9.30;;;5.60;;
75441;SDS011;64019;48.312;14.226;2023-03-12T09:45:24;9.23;;;4.97;;
75441;SDS011;64019;48.312;14.226;2023-03-12T09:47:56;10.07;;;5.00;;
75441;SDS011;64019;48.312;14.226;2023-03-12T09:55:46;11.37;;;5.33;;
75441;SDS011;64019;48.312;14.226;2023-03-12T10:06:37;7.70;;;4.07;;
75441;SDS011;64019;48.312;14.226;2023-03-12T10:12:29;9.60;;;4.27;;
75441;SDS011;64019;48.312;14.226;2023-03-12T10:15:29;8.63;;;4.10;;
75441;SDS011;64019;48.312;14.226;2023-03-12T10:20:49;7.90;;;3.77;;
75441;SDS011;64019;48.312;14.226;2023-03-12T10:26:39;8.13;;;4.00;;
75441;SDS011;64019;48.312;14.226;2023-03-12T10:29:25;6.40;;;3.87;;
75441;SDS011;64019;48.312;14.226;2023-03-12T10:34:38;5.60;;;3.23;;
75441;SDS011;64019;48.312;14.226;2023-03-12T10:37:52;6.83;;;3.20;;
75441;SDS011;64019;48.312;14.226;2023-03-12T10:40:03;7.83;;;3.60;;
75441;SDS011;64019;48.312;14.226;2023-03-12T10:42:30;7.57;;;3.30;;
75441;SDS011;64019;48.312;14.226;2023-03-12T10:50:11;8.90;;;3.80;;
75441;SDS011;64019;48.312;14.226;2023-03-12T10:52:43;3.97;;;2.60;;
75441;SDS011;64019;48.312;14.226;2023-03-12T10:55:20;6.47;;;3.23;;
75441;SDS011;64019;48.312;14.226;2023-03-12T10:57:48;4.83;;;2.83;;
75441;SDS011;64019;48.312;14.226;2023-03-12T11:00:19;9.03;;;3.30;;
75441;SDS011;64019;48.312;14.226;2023-03-12T11:05:25;5.37;;;3.13;;
75441;SDS011;64019;48.312;14.226;2023-03-12T11:08:02;5.13;;;3.37;;
75441;SDS011;64019;48.312;14.226;2023-03-12T11:13:30;8.07;;;4.20;;
75441;SDS011;64019;48.312;14.226;2023-03-12T11:15:51;6.43;;;4.50;;
75441;SDS011;64019;48.312;14.226;2023-03-12T11:20:45;6.30;;;3.70;;
75441;SDS011;64019;48.312;14.226;2023-03-12T11:23:15;6.60;;;4.00;;
75441;SDS011;64019;48.312;14.226;2023-03-12T11:25:53;11.90;;;3.90;;
75441;SDS011;64019;48.312;14.226;2023-03-12T11:28:36;5.47;;;3.73;;
75441;SDS011;64019;48.312;14.226;2023-03-12T11:31:07;5.73;;;3.90;;
75441;SDS011;64019;48.312;14.226;2023-03-12T11:33:39;4.13;;;3.00;;
75441;SDS011;64019;48.312;14.226;2023-03-12T11:41:38;6.13;;;3.90;;
75441;SDS011;64019;48.312;14.226;2023-03-12T12:25:20;5.83;;;4.00;;
75441;SDS011;64019;48.312;14.226;2023-03-12T12:33:20;6.30;;;3.73;;
75441;SDS011;64019;48.312;14.226;2023-03-12T12:35:57;9.60;;;4.47;;
75441;SDS011;64019;48.312;14.226;2023-03-12T12:38:32;5.13;;;3.40;;
75441;SDS011;64019;48.312;14.226;2023-03-12T12:41:19;6.23;;;3.90;;
75441;SDS011;64019;48.312;14.226;2023-03-12T12:48:54;8.17;;;3.83;;
75441;SDS011;64019;48.312;14.226;2023-03-12T12:51:25;6.23;;;3.90;;
75441;SDS011;64019;48.312;14.226;2023-03-12T12:56:47;7.57;;;4.40;;
75441;SDS011;64019;48.312;14.226;2023-03-12T12:59:33;8.10;;;4.67;;
75441;SDS011;64019;48.312;14.226;2023-03-12T13:02:02;8.17;;;4.10;;
75441;SDS011;64019;48.312;14.226;2023-03-12T13:04:37;9.27;;;4.90;;
75441;SDS011;64019;48.312;14.226;2023-03-12T13:09:45;10.47;;;4.63;;
75441;SDS011;64019;48.312;14.226;2023-03-12T13:12:17;8.60;;;4.53;;
75441;SDS011;64019;48.312;14.226;2023-03-12T13:14:44;6.40;;;4.23;;
75441;SDS011;64019;48.312;14.226;2023-03-12T13:17:27;7.50;;;4.57;;
75441;SDS011;64019;48.312;14.226;2023-03-12T13:20:11;9.60;;;5.23;;
75441;SDS011;64019;48.312;14.226;2023-03-12T13:28:00;5.50;;;3.50;;
75441;SDS011;64019;48.312;14.226;2023-03-12T13:30:49;7.67;;;4.47;;
75441;SDS011;64019;48.312;14.226;2023-03-12T13:33:17;10.77;;;4.37;;
75441;SDS011;64019;48.312;14.226;2023-03-12T13:41:35;6.90;;;4.00;;
75441;SDS011;64019;48.312;14.226;2023-03-12T13:49:45;6.43;;;3.90;;
75441;SDS011;64019;48.312;14.226;2023-03-12T14:00:28;9.83;;;4.80;;
75441;SDS011;64019;48.312;14.226;2023-03-12T14:03:17;7.33;;;4.13;;
75441;SDS011;64019;48.312;14.226;2023-03-12T14:11:23;7.73;;;4.20;;
75441;SDS011;64019;48.312;14.226;2023-03-12T14:17:09;7.00;;;4.57;;
75441;SDS011;64019;48.312;14.226;2023-03-12T14:19:47;5.87;;;4.00;;
75441;SDS011;64019;48.312;14.226;2023-03-12T14:22:16;6.57;;;4.20;;
75441;SDS011;64019;48.312;14.226;2023-03-12T14:24:47;8.23;;;4.30;;
75441;SDS011;64019;48.312;14.226;2023-03-12T14:27:19;6.10;;;4.43;;
75441;SDS011;64019;48.312;14.226;2023-03-12T14:29:56;7.90;;;4.30;;
75441;SDS011;64019;48.312;14.226;2023-03-12T14:32:28;6.43;;;4.00;;
75441;SDS011;64019;48.312;14.226;2023-03-12T14:38:03;6.13;;;3.63;;
75441;SDS011;64019;48.312;14.226;2023-03-12T14:40:37;6.97;;;4.07;;
75441;SDS011;64019;48.312;14.226;2023-03-12T14:43:28;5.87;;;3.23;;
75441;SDS011;64019;48.312;14.226;2023-03-12T14:45:56;6.23;;;3.80;;
75441;SDS011;64019;48.312;14.226;2023-03-12T14:48:30;6.40;;;3.40;;
75441;SDS011;64019;48.312;14.226;2023-03-12T14:51:01;5.47;;;3.57;;
75441;SDS011;64019;48.312;14.226;2023-03-12T14:53:32;5.13;;;3.43;;
75441;SDS011;64019;48.312;14.226;2023-03-12T14:58:45;4.47;;;3.10;;
75441;SDS011;64019;48.312;14.226;2023-03-12T15:01:13;6.30;;;3.60;;
75441;SDS011;64019;48.312;14.226;2023-03-12T15:03:44;8.23;;;3.40;;
75441;SDS011;64019;48.312;14.226;2023-03-12T15:06:27;5.60;;;3.60;;
75441;SDS011;64019;48.312;14.226;2023-03-12T15:08:55;7.83;;;3.80;;
75441;SDS011;64019;48.312;14.226;2023-03-12T15:11:22;6.50;;;3.87;;
75441;SDS011;64019;48.312;14.226;2023-03-12T15:13:51;11.60;;;3.80;;
75441;SDS011;64019;48.312;14.226;2023-03-12T15:16:18;6.87;;;4.00;;
75441;SDS011;64019;48.312;14.226;2023-03-12T15:18:45;6.90;;;4.00;;
75441;SDS011;64019;48.312;14.226;2023-03-12T15:21:13;5.83;;;3.63;;
75441;SDS011;64019;48.312;14.226;2023-03-12T15:23:40;5.30;;;3.40;;
75441;SDS011;64019;48.312;14.226;2023-03-12T15:28:54;7.77;;;3.97;;
75441;SDS011;64019;48.312;14.226;2023-03-12T15:31:24;8.93;;;3.90;;
75441;SDS011;64019;48.312;14.226;2023-03-12T15:34:03;7.50;;;3.77;;
75441;SDS011;64019;48.312;14.226;2023-03-12T15:36:30;6.67;;;3.70;;
75441;SDS011;64019;48.312;14.226;2023-03-12T15:38:59;7.53;;;4.00;;
75441;SDS011;64019;48.312;14.226;2023-03-12T15:44:21;5.53;;;3.60;;
75441;SDS011;64019;48.312;14.226;2023-03-12T15:47:00;4.20;;;3.10;;
75441;SDS011;64019;48.312;14.226;2023-03-12T15:49:30;5.00;;;3.23;;
75441;SDS011;64019;48.312;14.226;2023-03-12T15:52:01;7.20;;;4.50;;
75441;SDS011;64019;48.312;14.226;2023-03-12T16:04:09;6.03;;;4.07;;
75441;SDS011;64019;48.312;14.226;2023-03-12T16:06:35;9.67;;;3.63;;
75441;SDS011;64019;48.312;14.226;2023-03-12T16:09:01;10.63;;;4.40;;
75441;SDS011;64019;48.312;14.226;2023-03-12T16:11:31;5.47;;;3.47;;
75441;SDS011;64019;48.312;14.226;2023-03-12T16:14:06;5.90;;;4.13;;
75441;SDS011;64019;48.312;14.226;2023-03-12T16:16:41;7.00;;;3.67;;
75441;SDS011;64019;48.312;14.226;2023-03-12T16:22:29;7.97;;;4.03;;
75441;SDS011;64019;48.312;14.226;2023-03-12T16:24:55;5.70;;;3.63;;
75441;SDS011;64019;48.312;14.226;2023-03-12T16:27:20;10.23;;;4.13;;
75441;SDS011;64019;48.312;14.226;2023-03-12T16:29:46;8.10;;;3.93;;
75441;SDS011;64019;48.312;14.226;2023-03-12T16:32:13;10.07;;;4.60;;
75441;SDS011;64019;48.312;14.226;2023-03-12T16:34:40;7.10;;;3.63;;
75441;SDS011;64019;48.312;14.226;2023-03-12T16:37:12;10.03;;;3.77;;
75441;SDS011;64019;48.312;14.226;2023-03-12T16:39:38;6.00;;;3.90;;
75441;SDS011;64019;48.312;14.226;2023-03-12T16:42:05;6.43;;;3.90;;
75441;SDS011;64019;48.312;14.226;2023-03-12T16:44:39;6.73;;;4.20;;
75441;SDS011;64019;48.312;14.226;2023-03-12T16:47:08;6.40;;;3.57;;
75441;SDS011;64019;48.312;14.226;2023-03-12T16:49:36;8.50;;;4.40;;
75441;SDS011;64019;48.312;14.226;2023-03-12T16:52:01;5.20;;;3.57;;
75441;SDS011;64019;48.312;14.226;2023-03-12T16:54:43;6.93;;;3.70;;
75441;SDS011;64019;48.312;14.226;2023-03-12T16:57:12;7.27;;;3.73;;
75441;SDS011;64019;48.312;14.226;2023-03-12T16:59:47;9.07;;;4.43;;
75441;SDS011;64019;48.312;14.226;2023-03-12T17:02:13;4.60;;;3.37;;
75441;SDS011;64019;48.312;14.226;2023-03-12T17:04:41;6.93;;;3.13;;
75441;SDS011;64019;48.312;14.226;2023-03-12T17:07:07;8.53;;;3.90;;
75441;SDS011;64019;48.312;14.226;2023-03-12T17:09:33;6.53;;;3.17;;
75441;SDS011;64019;48.312;14.226;2023-03-12T17:11:59;6.10;;;3.70;;
75441;SDS011;64019;48.312;14.226;2023-03-12T17:14:25;6.80;;;3.50;;
75441;SDS011;64019;48.312;14.226;2023-03-12T17:16:53;8.40;;;4.10;;
75441;SDS011;64019;48.312;14.226;2023-03-12T17:19:19;6.77;;;3.80;;
75441;SDS011;64019;48.312;14.226;2023-03-12T17:21:45;7.17;;;3.97;;